<?xml version="1.0" encoding="UTF-8" standalone="no" ?>
<gpx xmlns="http://www.topografix.com/GPX/1/1" xmlns:xsi="http://www.w3.org/2001/XMLSchema-instance" xsi:schemaLocation="http://www.topografix.com/GPX/1/1 http://www.topografix.com/GPX/1/1/gpx.xsd" version="1.1" creator="VisuGPX - https://www.visugpx.com">
  <metadata>
    <name>Santeuil Vallée de la Viosne 29 km</name>
  </metadata>
  <trk>
    <name><![CDATA[15753622-Santeuil Vallée de la Viosne 28km]]></name>
    <extensions>
      <line xmlns="http://www.topografix.com/GPX/gpx_style/0/2">
        <color>0000FF</color>
        <width>4</width>
      </line>
    </extensions>
    <trkseg>
      <trkpt lat="49.12429" lon="1.94922">
        <ele>53.7</ele>
        <time>2022-10-29T19:01:01Z</time>
      </trkpt>
      <trkpt lat="49.12437" lon="1.94918">
        <ele>54</ele>
        <time>2022-10-29T19:01:25Z</time>
      </trkpt>
      <trkpt lat="49.12453" lon="1.9493">
        <ele>53</ele>
        <time>2022-10-29T19:01:46Z</time>
      </trkpt>
      <trkpt lat="49.12468" lon="1.94947">
        <ele>53</ele>
        <time>2022-10-29T19:02:10Z</time>
      </trkpt>
      <trkpt lat="49.12553" lon="1.95026">
        <ele>56</ele>
        <time>2022-10-29T19:04:23Z</time>
      </trkpt>
      <trkpt lat="49.1255" lon="1.95053">
        <ele>57</ele>
        <time>2022-10-29T19:04:47Z</time>
      </trkpt>
      <trkpt lat="49.12549" lon="1.95113">
        <ele>60</ele>
        <time>2022-10-29T19:05:40Z</time>
      </trkpt>
      <trkpt lat="49.12545" lon="1.95152">
        <ele>62</ele>
        <time>2022-10-29T19:06:14Z</time>
      </trkpt>
      <trkpt lat="49.12557" lon="1.95174">
        <ele>64</ele>
        <time>2022-10-29T19:06:39Z</time>
      </trkpt>
      <trkpt lat="49.12568" lon="1.95176">
        <ele>66</ele>
        <time>2022-10-29T19:06:54Z</time>
      </trkpt>
      <trkpt lat="49.12579" lon="1.95171">
        <ele>67</ele>
        <time>2022-10-29T19:07:09Z</time>
      </trkpt>
      <trkpt lat="49.12581" lon="1.95176">
        <ele>67</ele>
        <time>2022-10-29T19:07:14Z</time>
      </trkpt>
      <trkpt lat="49.12578" lon="1.95196">
        <ele>68</ele>
        <time>2022-10-29T19:07:32Z</time>
      </trkpt>
      <trkpt lat="49.1258" lon="1.9522">
        <ele>70</ele>
        <time>2022-10-29T19:07:53Z</time>
      </trkpt>
      <trkpt lat="49.12579" lon="1.95239">
        <ele>72</ele>
        <time>2022-10-29T19:08:10Z</time>
      </trkpt>
      <trkpt lat="49.12578" lon="1.95248">
        <ele>72</ele>
        <time>2022-10-29T19:08:18Z</time>
      </trkpt>
      <trkpt lat="49.12567" lon="1.95288">
        <ele>74</ele>
        <time>2022-10-29T19:08:56Z</time>
      </trkpt>
      <trkpt lat="49.12564" lon="1.95325">
        <ele>76</ele>
        <time>2022-10-29T19:09:28Z</time>
      </trkpt>
      <trkpt lat="49.12565" lon="1.9534">
        <ele>77</ele>
        <time>2022-10-29T19:09:42Z</time>
      </trkpt>
      <trkpt lat="49.12572" lon="1.95377">
        <ele>80</ele>
        <time>2022-10-29T19:10:15Z</time>
      </trkpt>
      <trkpt lat="49.12573" lon="1.95404">
        <ele>82</ele>
        <time>2022-10-29T19:10:39Z</time>
      </trkpt>
      <trkpt lat="49.1258" lon="1.95428">
        <ele>84</ele>
        <time>2022-10-29T19:11:02Z</time>
      </trkpt>
      <trkpt lat="49.12586" lon="1.95457">
        <ele>85</ele>
        <time>2022-10-29T19:11:28Z</time>
      </trkpt>
      <trkpt lat="49.12591" lon="1.9547">
        <ele>85</ele>
        <time>2022-10-29T19:11:41Z</time>
      </trkpt>
      <trkpt lat="49.12592" lon="1.95504">
        <ele>89.8</ele>
        <time>2022-10-29T19:11:55Z</time>
      </trkpt>
      <trkpt lat="49.1261" lon="1.95604">
        <ele>89.8</ele>
        <time>2022-10-29T19:17:00Z</time>
      </trkpt>
      <trkpt lat="49.1262" lon="1.95736">
        <ele>89</ele>
        <time>2022-10-29T19:17:28Z</time>
      </trkpt>
      <trkpt lat="49.12623" lon="1.95799">
        <ele>89.3</ele>
        <time>2022-10-29T19:19:22Z</time>
      </trkpt>
      <trkpt lat="49.12686" lon="1.95937">
        <ele>90.8</ele>
      </trkpt>
      <trkpt lat="49.12867" lon="1.96307">
        <ele>92</ele>
        <time>2022-10-29T19:24:17Z</time>
      </trkpt>
      <trkpt lat="49.13031" lon="1.96053">
        <ele>96</ele>
        <time>2022-10-29T19:25:28Z</time>
      </trkpt>
      <trkpt lat="49.13032" lon="1.96055">
        <ele>96</ele>
        <time>2022-10-29T19:25:30Z</time>
      </trkpt>
      <trkpt lat="49.13134" lon="1.95912">
        <ele>101</ele>
        <time>2022-10-29T19:28:35Z</time>
      </trkpt>
      <trkpt lat="49.1318" lon="1.95833">
        <ele>101</ele>
        <time>2022-10-29T19:30:07Z</time>
      </trkpt>
      <trkpt lat="49.13201" lon="1.95783">
        <ele>101</ele>
        <time>2022-10-29T19:30:59Z</time>
      </trkpt>
      <trkpt lat="49.13253" lon="1.9561">
        <ele>100</ele>
        <time>2022-10-29T19:33:46Z</time>
      </trkpt>
      <trkpt lat="49.13273" lon="1.95513">
        <ele>98</ele>
        <time>2022-10-29T19:35:14Z</time>
      </trkpt>
      <trkpt lat="49.13299" lon="1.95354">
        <ele>94</ele>
        <time>2022-10-29T19:37:38Z</time>
      </trkpt>
      <trkpt lat="49.13323" lon="1.95293">
        <ele>92</ele>
        <time>2022-10-29T19:38:40Z</time>
      </trkpt>
      <trkpt lat="49.13328" lon="1.95285">
        <ele>92</ele>
        <time>2022-10-29T19:38:49Z</time>
      </trkpt>
      <trkpt lat="49.13356" lon="1.95187">
        <ele>90</ele>
        <time>2022-10-29T19:40:23Z</time>
      </trkpt>
      <trkpt lat="49.13361" lon="1.95154">
        <ele>90</ele>
        <time>2022-10-29T19:40:52Z</time>
      </trkpt>
      <trkpt lat="49.13369" lon="1.95061">
        <ele>87</ele>
        <time>2022-10-29T19:42:14Z</time>
      </trkpt>
      <trkpt lat="49.13378" lon="1.95016">
        <ele>86</ele>
        <time>2022-10-29T19:42:55Z</time>
      </trkpt>
      <trkpt lat="49.13387" lon="1.94988">
        <ele>85</ele>
        <time>2022-10-29T19:43:22Z</time>
      </trkpt>
      <trkpt lat="49.13465" lon="1.94795">
        <ele>79</ele>
        <time>2022-10-29T19:46:41Z</time>
      </trkpt>
      <trkpt lat="49.13601" lon="1.94716">
        <ele>79</ele>
        <time>2022-10-29T19:49:55Z</time>
      </trkpt>
      <trkpt lat="49.13718" lon="1.94607">
        <ele>80</ele>
        <time>2022-10-29T19:52:58Z</time>
      </trkpt>
      <trkpt lat="49.13752" lon="1.94524">
        <ele>77</ele>
        <time>2022-10-29T19:54:23Z</time>
      </trkpt>
      <trkpt lat="49.13769" lon="1.945">
        <ele>78</ele>
        <time>2022-10-29T19:54:54Z</time>
      </trkpt>
      <trkpt lat="49.13769" lon="1.94506">
        <ele>78</ele>
        <time>2022-10-29T19:54:59Z</time>
      </trkpt>
      <trkpt lat="49.13771" lon="1.94506">
        <ele>79</ele>
        <time>2022-10-29T19:55:02Z</time>
      </trkpt>
      <trkpt lat="49.13769" lon="1.94506">
        <ele>78</ele>
        <time>2022-10-29T19:55:05Z</time>
      </trkpt>
      <trkpt lat="49.13772" lon="1.9445">
        <ele>74</ele>
        <time>2022-10-29T19:55:54Z</time>
      </trkpt>
      <trkpt lat="49.13773" lon="1.94402">
        <ele>70</ele>
        <time>2022-10-29T19:56:36Z</time>
      </trkpt>
      <trkpt lat="49.13769" lon="1.94378">
        <ele>68</ele>
        <time>2022-10-29T19:56:57Z</time>
      </trkpt>
      <trkpt lat="49.1376" lon="1.94349">
        <ele>65</ele>
        <time>2022-10-29T19:57:25Z</time>
      </trkpt>
      <trkpt lat="49.13754" lon="1.94335">
        <ele>63</ele>
        <time>2022-10-29T19:57:40Z</time>
      </trkpt>
      <trkpt lat="49.13786" lon="1.94299">
        <ele>64</ele>
        <time>2022-10-29T19:58:33Z</time>
      </trkpt>
      <trkpt lat="49.13805" lon="1.94294">
        <ele>66</ele>
        <time>2022-10-29T19:58:59Z</time>
      </trkpt>
      <trkpt lat="49.13823" lon="1.94268">
        <ele>65</ele>
        <time>2022-10-29T19:59:32Z</time>
      </trkpt>
      <trkpt lat="49.13812" lon="1.94245">
        <ele>64</ele>
        <time>2022-10-29T19:59:56Z</time>
      </trkpt>
      <trkpt lat="49.13822" lon="1.94227">
        <ele>64</ele>
        <time>2022-10-29T20:00:17Z</time>
      </trkpt>
      <trkpt lat="49.13859" lon="1.94145">
        <ele>64</ele>
        <time>2022-10-29T20:01:44Z</time>
      </trkpt>
      <trkpt lat="49.13894" lon="1.94071">
        <ele>64</ele>
        <time>2022-10-29T20:03:04Z</time>
      </trkpt>
      <trkpt lat="49.1394" lon="1.94006">
        <ele>65</ele>
        <time>2022-10-29T20:04:27Z</time>
      </trkpt>
      <trkpt lat="49.13967" lon="1.93987">
        <ele>66</ele>
        <time>2022-10-29T20:05:07Z</time>
      </trkpt>
      <trkpt lat="49.13994" lon="1.9398">
        <ele>67</ele>
        <time>2022-10-29T20:05:44Z</time>
      </trkpt>
      <trkpt lat="49.14059" lon="1.93978">
        <ele>69</ele>
        <time>2022-10-29T20:07:10Z</time>
      </trkpt>
      <trkpt lat="49.14215" lon="1.9398">
        <ele>71</ele>
        <time>2022-10-29T20:10:38Z</time>
      </trkpt>
      <trkpt lat="49.14303" lon="1.94004">
        <ele>75</ele>
        <time>2022-10-29T20:12:38Z</time>
      </trkpt>
      <trkpt lat="49.1433" lon="1.94004">
        <ele>75</ele>
        <time>2022-10-29T20:13:14Z</time>
      </trkpt>
      <trkpt lat="49.14454" lon="1.93941">
        <ele>67</ele>
        <time>2022-10-29T20:16:08Z</time>
      </trkpt>
      <trkpt lat="49.14475" lon="1.93938">
        <ele>66</ele>
        <time>2022-10-29T20:16:36Z</time>
      </trkpt>
      <trkpt lat="49.14494" lon="1.93942">
        <ele>66</ele>
        <time>2022-10-29T20:17:02Z</time>
      </trkpt>
      <trkpt lat="49.14565" lon="1.94003">
        <ele>65</ele>
        <time>2022-10-29T20:18:51Z</time>
      </trkpt>
      <trkpt lat="49.14587" lon="1.94002">
        <ele>64</ele>
        <time>2022-10-29T20:19:20Z</time>
      </trkpt>
      <trkpt lat="49.14608" lon="1.93993">
        <ele>66</ele>
        <time>2022-10-29T20:19:49Z</time>
      </trkpt>
      <trkpt lat="49.14636" lon="1.9396">
        <ele>61.7</ele>
        <time>2022-10-29T20:20:41Z</time>
      </trkpt>
      <trkpt lat="49.14651" lon="1.94237">
        <ele>78</ele>
        <time>2022-10-29T20:24:45Z</time>
      </trkpt>
      <trkpt lat="49.14778" lon="1.94396">
        <ele>89</ele>
        <time>2022-10-29T20:28:24Z</time>
      </trkpt>
      <trkpt lat="49.1488" lon="1.94594">
        <ele>93</ele>
        <time>2022-10-29T20:32:04Z</time>
      </trkpt>
      <trkpt lat="49.14927" lon="1.94632">
        <ele>91</ele>
        <time>2022-10-29T20:33:15Z</time>
      </trkpt>
      <trkpt lat="49.1497" lon="1.94672">
        <ele>90</ele>
        <time>2022-10-29T20:34:22Z</time>
      </trkpt>
      <trkpt lat="49.14968" lon="1.9469">
        <ele>91</ele>
        <time>2022-10-29T20:34:38Z</time>
      </trkpt>
      <trkpt lat="49.14929" lon="1.95058">
        <ele>105</ele>
        <time>2022-10-29T20:40:04Z</time>
      </trkpt>
      <trkpt lat="49.14929" lon="1.95069">
        <ele>106</ele>
        <time>2022-10-29T20:40:13Z</time>
      </trkpt>
      <trkpt lat="49.14934" lon="1.95083">
        <ele>107</ele>
        <time>2022-10-29T20:40:27Z</time>
      </trkpt>
      <trkpt lat="49.14939" lon="1.95089">
        <ele>107</ele>
        <time>2022-10-29T20:40:36Z</time>
      </trkpt>
      <trkpt lat="49.14983" lon="1.95094">
        <ele>104</ele>
        <time>2022-10-29T20:41:35Z</time>
      </trkpt>
      <trkpt lat="49.15039" lon="1.95118">
        <ele>102</ele>
        <time>2022-10-29T20:42:52Z</time>
      </trkpt>
      <trkpt lat="49.15234" lon="1.95279">
        <ele>101</ele>
        <time>2022-10-29T20:47:48Z</time>
      </trkpt>
      <trkpt lat="49.15367" lon="1.95383">
        <ele>106</ele>
        <time>2022-10-29T20:51:07Z</time>
      </trkpt>
      <trkpt lat="49.1543" lon="1.95421">
        <ele>106</ele>
        <time>2022-10-29T20:52:38Z</time>
      </trkpt>
      <trkpt lat="49.15466" lon="1.95469">
        <ele>105</ele>
        <time>2022-10-29T20:53:41Z</time>
      </trkpt>
      <trkpt lat="49.1546" lon="1.95482">
        <ele>105</ele>
        <time>2022-10-29T20:53:55Z</time>
      </trkpt>
      <trkpt lat="49.15468" lon="1.95494">
        <ele>105</ele>
        <time>2022-10-29T20:54:10Z</time>
      </trkpt>
      <trkpt lat="49.15537" lon="1.95471">
        <ele>101</ele>
        <time>2022-10-29T20:55:44Z</time>
      </trkpt>
      <trkpt lat="49.15578" lon="1.95474">
        <ele>100</ele>
        <time>2022-10-29T20:56:39Z</time>
      </trkpt>
      <trkpt lat="49.15626" lon="1.95489">
        <ele>99</ele>
        <time>2022-10-29T20:57:45Z</time>
      </trkpt>
      <trkpt lat="49.15716" lon="1.95477">
        <ele>99</ele>
        <time>2022-10-29T20:59:45Z</time>
      </trkpt>
      <trkpt lat="49.15861" lon="1.95443">
        <ele>105</ele>
        <time>2022-10-29T21:03:01Z</time>
      </trkpt>
      <trkpt lat="49.16244" lon="1.95301">
        <ele>108</ele>
        <time>2022-10-29T21:11:47Z</time>
      </trkpt>
      <trkpt lat="49.16278" lon="1.95298">
        <ele>108</ele>
        <time>2022-10-29T21:12:32Z</time>
      </trkpt>
      <trkpt lat="49.16378" lon="1.95301">
        <ele>109</ele>
        <time>2022-10-29T21:14:46Z</time>
      </trkpt>
      <trkpt lat="49.16459" lon="1.95288">
        <ele>107</ele>
        <time>2022-10-29T21:16:34Z</time>
      </trkpt>
      <trkpt lat="49.16557" lon="1.95277">
        <ele>109</ele>
        <time>2022-10-29T21:18:46Z</time>
      </trkpt>
      <trkpt lat="49.16697" lon="1.95281">
        <ele>115</ele>
        <time>2022-10-29T21:21:52Z</time>
      </trkpt>
      <trkpt lat="49.16763" lon="1.95297">
        <ele>114</ele>
        <time>2022-10-29T21:23:22Z</time>
      </trkpt>
      <trkpt lat="49.16868" lon="1.95322">
        <ele>114</ele>
        <time>2022-10-29T21:25:43Z</time>
      </trkpt>
      <trkpt lat="49.16918" lon="1.95308">
        <ele>115</ele>
        <time>2022-10-29T21:26:51Z</time>
      </trkpt>
      <trkpt lat="49.17002" lon="1.95291">
        <ele>109</ele>
        <time>2022-10-29T21:28:44Z</time>
      </trkpt>
      <trkpt lat="49.17068" lon="1.95282">
        <ele>103</ele>
        <time>2022-10-29T21:30:13Z</time>
      </trkpt>
      <trkpt lat="49.17089" lon="1.95275">
        <ele>102</ele>
        <time>2022-10-29T21:30:41Z</time>
      </trkpt>
      <trkpt lat="49.17139" lon="1.9525">
        <ele>102</ele>
        <time>2022-10-29T21:31:52Z</time>
      </trkpt>
      <trkpt lat="49.17147" lon="1.95248">
        <ele>102</ele>
        <time>2022-10-29T21:32:02Z</time>
      </trkpt>
      <trkpt lat="49.17159" lon="1.95249">
        <ele>103</ele>
        <time>2022-10-29T21:32:18Z</time>
      </trkpt>
      <trkpt lat="49.17271" lon="1.95312">
        <ele>110</ele>
        <time>2022-10-29T21:34:58Z</time>
      </trkpt>
      <trkpt lat="49.17439" lon="1.9537">
        <ele>114</ele>
        <time>2022-10-29T21:38:48Z</time>
      </trkpt>
      <trkpt lat="49.17462" lon="1.95376">
        <ele>113</ele>
        <time>2022-10-29T21:39:19Z</time>
      </trkpt>
      <trkpt lat="49.17485" lon="1.95376">
        <ele>111</ele>
        <time>2022-10-29T21:39:49Z</time>
      </trkpt>
      <trkpt lat="49.17521" lon="1.95365">
        <ele>108</ele>
        <time>2022-10-29T21:40:38Z</time>
      </trkpt>
      <trkpt lat="49.17546" lon="1.95351">
        <ele>107</ele>
        <time>2022-10-29T21:41:14Z</time>
      </trkpt>
      <trkpt lat="49.17564" lon="1.95337">
        <ele>106</ele>
        <time>2022-10-29T21:41:41Z</time>
      </trkpt>
      <trkpt lat="49.17626" lon="1.9528">
        <ele>103</ele>
        <time>2022-10-29T21:43:17Z</time>
      </trkpt>
      <trkpt lat="49.1764" lon="1.9527">
        <ele>103</ele>
        <time>2022-10-29T21:43:38Z</time>
      </trkpt>
      <trkpt lat="49.1766" lon="1.95264">
        <ele>101</ele>
        <time>2022-10-29T21:44:05Z</time>
      </trkpt>
      <trkpt lat="49.17678" lon="1.95263">
        <ele>101</ele>
        <time>2022-10-29T21:44:29Z</time>
      </trkpt>
      <trkpt lat="49.1775" lon="1.95266">
        <ele>101</ele>
        <time>2022-10-29T21:46:05Z</time>
      </trkpt>
      <trkpt lat="49.17766" lon="1.95263">
        <ele>101</ele>
        <time>2022-10-29T21:46:27Z</time>
      </trkpt>
      <trkpt lat="49.17784" lon="1.95255">
        <ele>101</ele>
        <time>2022-10-29T21:46:52Z</time>
      </trkpt>
      <trkpt lat="49.17805" lon="1.95239">
        <ele>100</ele>
        <time>2022-10-29T21:47:23Z</time>
      </trkpt>
      <trkpt lat="49.17825" lon="1.95218">
        <ele>99</ele>
        <time>2022-10-29T21:47:56Z</time>
      </trkpt>
      <trkpt lat="49.17839" lon="1.95206">
        <ele>99</ele>
        <time>2022-10-29T21:48:17Z</time>
      </trkpt>
      <trkpt lat="49.17852" lon="1.952">
        <ele>99</ele>
        <time>2022-10-29T21:48:35Z</time>
      </trkpt>
      <trkpt lat="49.17887" lon="1.95204">
        <ele>101</ele>
        <time>2022-10-29T21:49:22Z</time>
      </trkpt>
      <trkpt lat="49.17944" lon="1.95183">
        <ele>104</ele>
        <time>2022-10-29T21:50:40Z</time>
      </trkpt>
      <trkpt lat="49.17955" lon="1.95181">
        <ele>105</ele>
        <time>2022-10-29T21:50:55Z</time>
      </trkpt>
      <trkpt lat="49.1799" lon="1.95198">
        <ele>108</ele>
        <time>2022-10-29T21:51:44Z</time>
      </trkpt>
      <trkpt lat="49.17993" lon="1.95199">
        <ele>108</ele>
        <time>2022-10-29T21:51:48Z</time>
      </trkpt>
      <trkpt lat="49.17998" lon="1.95201">
        <ele>109</ele>
        <time>2022-10-29T21:51:55Z</time>
      </trkpt>
      <trkpt lat="49.18053" lon="1.9493">
        <ele>103</ele>
        <time>2022-10-29T21:56:02Z</time>
      </trkpt>
      <trkpt lat="49.18062" lon="1.94898">
        <ele>102</ele>
        <time>2022-10-29T21:56:33Z</time>
      </trkpt>
      <trkpt lat="49.18071" lon="1.94895">
        <ele>101</ele>
        <time>2022-10-29T21:56:45Z</time>
      </trkpt>
      <trkpt lat="49.1808" lon="1.94905">
        <ele>102</ele>
        <time>2022-10-29T21:57:00Z</time>
      </trkpt>
      <trkpt lat="49.1809" lon="1.94964">
        <ele>103</ele>
        <time>2022-10-29T21:57:53Z</time>
      </trkpt>
      <trkpt lat="49.18097" lon="1.9503">
        <ele>104</ele>
        <time>2022-10-29T21:58:51Z</time>
      </trkpt>
      <trkpt lat="49.18106" lon="1.95056">
        <ele>103</ele>
        <time>2022-10-29T21:59:17Z</time>
      </trkpt>
      <trkpt lat="49.18121" lon="1.95076">
        <ele>101</ele>
        <time>2022-10-29T21:59:44Z</time>
      </trkpt>
      <trkpt lat="49.1817" lon="1.95129">
        <ele>99</ele>
        <time>2022-10-29T22:01:04Z</time>
      </trkpt>
      <trkpt lat="49.18223" lon="1.95177">
        <ele>95</ele>
        <time>2022-10-29T22:02:26Z</time>
      </trkpt>
      <trkpt lat="49.18253" lon="1.95201">
        <ele>94</ele>
        <time>2022-10-29T22:03:11Z</time>
      </trkpt>
      <trkpt lat="49.18273" lon="1.95224">
        <ele>95</ele>
        <time>2022-10-29T22:03:45Z</time>
      </trkpt>
      <trkpt lat="49.183" lon="1.95249">
        <ele>95</ele>
        <time>2022-10-29T22:04:27Z</time>
      </trkpt>
      <trkpt lat="49.18318" lon="1.95223">
        <ele>92</ele>
        <time>2022-10-29T22:05:00Z</time>
      </trkpt>
      <trkpt lat="49.18337" lon="1.95189">
        <ele>90</ele>
        <time>2022-10-29T22:05:39Z</time>
      </trkpt>
      <trkpt lat="49.18342" lon="1.95174">
        <ele>90</ele>
        <time>2022-10-29T22:05:53Z</time>
      </trkpt>
      <trkpt lat="49.18342" lon="1.95161">
        <ele>90</ele>
        <time>2022-10-29T22:06:05Z</time>
      </trkpt>
      <trkpt lat="49.18296" lon="1.95017">
        <ele>92</ele>
        <time>2022-10-29T22:08:25Z</time>
      </trkpt>
      <trkpt lat="49.18289" lon="1.94987">
        <ele>92</ele>
        <time>2022-10-29T22:08:52Z</time>
      </trkpt>
      <trkpt lat="49.18288" lon="1.94976">
        <ele>92</ele>
        <time>2022-10-29T22:09:02Z</time>
      </trkpt>
      <trkpt lat="49.18297" lon="1.94917">
        <ele>93</ele>
        <time>2022-10-29T22:09:55Z</time>
      </trkpt>
      <trkpt lat="49.1831" lon="1.94893">
        <ele>94</ele>
        <time>2022-10-29T22:10:22Z</time>
      </trkpt>
      <trkpt lat="49.18328" lon="1.94871">
        <ele>96</ele>
        <time>2022-10-29T22:10:53Z</time>
      </trkpt>
      <trkpt lat="49.18419" lon="1.94815">
        <ele>102</ele>
        <time>2022-10-29T22:13:04Z</time>
      </trkpt>
      <trkpt lat="49.18468" lon="1.94778">
        <ele>105</ele>
        <time>2022-10-29T22:14:17Z</time>
      </trkpt>
      <trkpt lat="49.18505" lon="1.94737">
        <ele>107</ele>
        <time>2022-10-29T22:15:18Z</time>
      </trkpt>
      <trkpt lat="49.18446" lon="1.94631">
        <ele>104</ele>
        <time>2022-10-29T22:17:19Z</time>
      </trkpt>
      <trkpt lat="49.18337" lon="1.94423">
        <ele>104</ele>
        <time>2022-10-29T22:21:12Z</time>
      </trkpt>
      <trkpt lat="49.18249" lon="1.94266">
        <ele>105</ele>
        <time>2022-10-29T22:24:12Z</time>
      </trkpt>
      <trkpt lat="49.18206" lon="1.94182">
        <ele>106</ele>
        <time>2022-10-29T22:25:45Z</time>
      </trkpt>
      <trkpt lat="49.18185" lon="1.94144">
        <ele>106</ele>
        <time>2022-10-29T22:26:28Z</time>
      </trkpt>
      <trkpt lat="49.18113" lon="1.94029">
        <ele>108</ele>
        <time>2022-10-29T22:28:47Z</time>
      </trkpt>
      <trkpt lat="49.18086" lon="1.93989">
        <ele>107</ele>
        <time>2022-10-29T22:29:37Z</time>
      </trkpt>
      <trkpt lat="49.18056" lon="1.9395">
        <ele>106</ele>
        <time>2022-10-29T22:30:30Z</time>
      </trkpt>
      <trkpt lat="49.17959" lon="1.93809">
        <ele>108</ele>
        <time>2022-10-29T22:33:29Z</time>
      </trkpt>
      <trkpt lat="49.17921" lon="1.9376">
        <ele>110</ele>
        <time>2022-10-29T22:34:35Z</time>
      </trkpt>
      <trkpt lat="49.17886" lon="1.93698">
        <ele>109</ele>
        <time>2022-10-29T22:35:46Z</time>
      </trkpt>
      <trkpt lat="49.17825" lon="1.93515">
        <ele>105</ele>
        <time>2022-10-29T22:38:46Z</time>
      </trkpt>
      <trkpt lat="49.17819" lon="1.93419">
        <ele>101</ele>
        <time>2022-10-29T22:40:10Z</time>
      </trkpt>
      <trkpt lat="49.1783" lon="1.93321">
        <ele>95</ele>
        <time>2022-10-29T22:41:36Z</time>
      </trkpt>
      <trkpt lat="49.17836" lon="1.93299">
        <ele>92</ele>
        <time>2022-10-29T22:41:57Z</time>
      </trkpt>
      <trkpt lat="49.17841" lon="1.93288">
        <ele>91</ele>
        <time>2022-10-29T22:42:09Z</time>
      </trkpt>
      <trkpt lat="49.17848" lon="1.93284">
        <ele>90</ele>
        <time>2022-10-29T22:42:19Z</time>
      </trkpt>
      <trkpt lat="49.17917" lon="1.93294">
        <ele>91</ele>
        <time>2022-10-29T22:43:51Z</time>
      </trkpt>
      <trkpt lat="49.17929" lon="1.93292">
        <ele>91</ele>
        <time>2022-10-29T22:44:07Z</time>
      </trkpt>
      <trkpt lat="49.1797" lon="1.93301">
        <ele>92</ele>
        <time>2022-10-29T22:46:26Z</time>
      </trkpt>
      <trkpt lat="49.18175" lon="1.93322">
        <ele>103</ele>
        <time>2022-10-29T22:51:00Z</time>
      </trkpt>
      <trkpt lat="49.18424" lon="1.93083">
        <ele>109</ele>
        <time>2022-10-29T22:57:32Z</time>
      </trkpt>
      <trkpt lat="49.18616" lon="1.92977">
        <ele>108</ele>
        <time>2022-10-29T23:02:04Z</time>
      </trkpt>
      <trkpt lat="49.18748" lon="1.92939">
        <ele>109</ele>
        <time>2022-10-29T23:05:04Z</time>
      </trkpt>
      <trkpt lat="49.18762" lon="1.92963">
        <ele>109</ele>
        <time>2022-10-29T23:05:32Z</time>
      </trkpt>
      <trkpt lat="49.19004" lon="1.92785">
        <ele>115</ele>
        <time>2022-10-29T23:11:30Z</time>
      </trkpt>
      <trkpt lat="49.19058" lon="1.92722">
        <ele>108</ele>
        <time>2022-10-29T23:13:01Z</time>
      </trkpt>
      <trkpt lat="49.19111" lon="1.92693">
        <ele>100</ele>
        <time>2022-10-29T23:14:16Z</time>
      </trkpt>
      <trkpt lat="49.19175" lon="1.92717">
        <ele>92</ele>
        <time>2022-10-29T23:15:44Z</time>
      </trkpt>
      <trkpt lat="49.19215" lon="1.92749">
        <ele>91</ele>
        <time>2022-10-29T23:16:44Z</time>
      </trkpt>
      <trkpt lat="49.19229" lon="1.92745">
        <ele>89</ele>
        <time>2022-10-29T23:17:03Z</time>
      </trkpt>
      <trkpt lat="49.19263" lon="1.9278">
        <ele>90</ele>
        <time>2022-10-29T23:17:58Z</time>
      </trkpt>
      <trkpt lat="49.19309" lon="1.92855">
        <ele>98</ele>
        <time>2022-10-29T23:19:27Z</time>
      </trkpt>
      <trkpt lat="49.19317" lon="1.92865">
        <ele>99</ele>
        <time>2022-10-29T23:19:41Z</time>
      </trkpt>
      <trkpt lat="49.19353" lon="1.92879">
        <ele>105</ele>
        <time>2022-10-29T23:20:31Z</time>
      </trkpt>
      <trkpt lat="49.19376" lon="1.92894">
        <ele>109</ele>
        <time>2022-10-29T23:21:04Z</time>
      </trkpt>
      <trkpt lat="49.19402" lon="1.92914">
        <ele>113</ele>
        <time>2022-10-29T23:21:43Z</time>
      </trkpt>
      <trkpt lat="49.19429" lon="1.92931">
        <ele>116</ele>
        <time>2022-10-29T23:22:22Z</time>
      </trkpt>
      <trkpt lat="49.19444" lon="1.92933">
        <ele>117</ele>
        <time>2022-10-29T23:22:42Z</time>
      </trkpt>
      <trkpt lat="49.19496" lon="1.92931">
        <ele>122</ele>
        <time>2022-10-29T23:23:51Z</time>
      </trkpt>
      <trkpt lat="49.19501" lon="1.92931">
        <ele>122</ele>
        <time>2022-10-29T23:23:58Z</time>
      </trkpt>
      <trkpt lat="49.19523" lon="1.92941">
        <ele>123</ele>
        <time>2022-10-29T23:24:29Z</time>
      </trkpt>
      <trkpt lat="49.19539" lon="1.9294">
        <ele>124</ele>
        <time>2022-10-29T23:24:50Z</time>
      </trkpt>
      <trkpt lat="49.19534" lon="1.92903">
        <ele>124</ele>
        <time>2022-10-29T23:25:23Z</time>
      </trkpt>
      <trkpt lat="49.19531" lon="1.92836">
        <ele>125</ele>
        <time>2022-10-29T23:26:22Z</time>
      </trkpt>
      <trkpt lat="49.19532" lon="1.9283">
        <ele>125</ele>
        <time>2022-10-29T23:26:27Z</time>
      </trkpt>
      <trkpt lat="49.19537" lon="1.92777">
        <ele>125</ele>
        <time>2022-10-29T23:27:14Z</time>
      </trkpt>
      <trkpt lat="49.19535" lon="1.92761">
        <ele>125</ele>
        <time>2022-10-29T23:27:28Z</time>
      </trkpt>
      <trkpt lat="49.19498" lon="1.92632">
        <ele>125</ele>
        <time>2022-10-29T23:29:31Z</time>
      </trkpt>
      <trkpt lat="49.19494" lon="1.92633">
        <ele>125</ele>
        <time>2022-10-29T23:29:36Z</time>
      </trkpt>
      <trkpt lat="49.19463" lon="1.92619">
        <ele>122</ele>
        <time>2022-10-29T23:30:19Z</time>
      </trkpt>
      <trkpt lat="49.1945" lon="1.9261">
        <ele>121</ele>
        <time>2022-10-29T23:30:38Z</time>
      </trkpt>
      <trkpt lat="49.19437" lon="1.9259">
        <ele>120</ele>
        <time>2022-10-29T23:31:03Z</time>
      </trkpt>
      <trkpt lat="49.19419" lon="1.92564">
        <ele>119</ele>
        <time>2022-10-29T23:31:36Z</time>
      </trkpt>
      <trkpt lat="49.19355" lon="1.92514">
        <ele>110.8</ele>
      </trkpt>
      <trkpt lat="49.19239" lon="1.92599">
        <ele>90.8</ele>
        <time>2022-10-29T23:36:05Z</time>
      </trkpt>
      <trkpt lat="49.19134" lon="1.92394">
        <ele>79.4</ele>
        <time>2022-10-29T23:40:32Z</time>
      </trkpt>
      <trkpt lat="49.18987" lon="1.92194">
        <ele>76.7</ele>
        <time>2022-10-29T23:42:20Z</time>
      </trkpt>
      <trkpt lat="49.18966" lon="1.92164">
        <ele>76.4</ele>
        <time>2022-10-29T23:43:15Z</time>
      </trkpt>
      <trkpt lat="49.18943" lon="1.92177">
        <ele>72.9</ele>
        <time>2022-10-29T23:43:53Z</time>
      </trkpt>
      <trkpt lat="49.18947" lon="1.92093">
        <ele>83</ele>
        <time>2022-10-29T23:44:13Z</time>
      </trkpt>
      <trkpt lat="49.18959" lon="1.91996">
        <ele>84</ele>
        <time>2022-10-29T23:45:39Z</time>
      </trkpt>
      <trkpt lat="49.18956" lon="1.91946">
        <ele>82</ele>
        <time>2022-10-29T23:46:23Z</time>
      </trkpt>
      <trkpt lat="49.1896" lon="1.91922">
        <ele>82</ele>
        <time>2022-10-29T23:46:44Z</time>
      </trkpt>
      <trkpt lat="49.18957" lon="1.91907">
        <ele>81</ele>
        <time>2022-10-29T23:46:58Z</time>
      </trkpt>
      <trkpt lat="49.1898" lon="1.91836">
        <ele>80</ele>
        <time>2022-10-29T23:48:07Z</time>
      </trkpt>
      <trkpt lat="49.18993" lon="1.91781">
        <ele>78</ele>
        <time>2022-10-29T23:48:58Z</time>
      </trkpt>
      <trkpt lat="49.19058" lon="1.91701">
        <ele>77</ele>
        <time>2022-10-29T23:50:49Z</time>
      </trkpt>
      <trkpt lat="49.19054" lon="1.91688">
        <ele>76</ele>
        <time>2022-10-29T23:51:02Z</time>
      </trkpt>
      <trkpt lat="49.18968" lon="1.91543">
        <ele>81</ele>
        <time>2022-10-29T23:53:53Z</time>
      </trkpt>
      <trkpt lat="49.18959" lon="1.91546">
        <ele>82</ele>
        <time>2022-10-29T23:54:05Z</time>
      </trkpt>
      <trkpt lat="49.18956" lon="1.91544">
        <ele>82</ele>
        <time>2022-10-29T23:54:09Z</time>
      </trkpt>
      <trkpt lat="49.18948" lon="1.91536">
        <ele>84</ele>
        <time>2022-10-29T23:54:22Z</time>
      </trkpt>
      <trkpt lat="49.18932" lon="1.9155">
        <ele>84</ele>
        <time>2022-10-29T23:54:47Z</time>
      </trkpt>
      <trkpt lat="49.18855" lon="1.91605">
        <ele>89</ele>
        <time>2022-10-29T23:56:40Z</time>
      </trkpt>
      <trkpt lat="49.1887" lon="1.91578">
        <ele>89</ele>
        <time>2022-10-29T23:57:11Z</time>
      </trkpt>
      <trkpt lat="49.18897" lon="1.91539">
        <ele>90</ele>
        <time>2022-10-29T23:58:01Z</time>
      </trkpt>
      <trkpt lat="49.18958" lon="1.91481">
        <ele>89</ele>
        <time>2022-10-29T23:59:36Z</time>
      </trkpt>
      <trkpt lat="49.18996" lon="1.91366">
        <ele>95</ele>
        <time>2022-10-30T00:01:29Z</time>
      </trkpt>
      <trkpt lat="49.18996" lon="1.91327">
        <ele>97</ele>
        <time>2022-10-30T00:02:03Z</time>
      </trkpt>
      <trkpt lat="49.19003" lon="1.91287">
        <ele>97</ele>
        <time>2022-10-30T00:02:39Z</time>
      </trkpt>
      <trkpt lat="49.19001" lon="1.91269">
        <ele>98</ele>
        <time>2022-10-30T00:02:55Z</time>
      </trkpt>
      <trkpt lat="49.18994" lon="1.91258">
        <ele>98</ele>
        <time>2022-10-30T00:03:08Z</time>
      </trkpt>
      <trkpt lat="49.18918" lon="1.91186">
        <ele>102</ele>
        <time>2022-10-30T00:05:07Z</time>
      </trkpt>
      <trkpt lat="49.18864" lon="1.91145">
        <ele>102</ele>
        <time>2022-10-30T00:06:28Z</time>
      </trkpt>
      <trkpt lat="49.18838" lon="1.91115">
        <ele>102</ele>
        <time>2022-10-30T00:07:11Z</time>
      </trkpt>
      <trkpt lat="49.1879" lon="1.9105">
        <ele>102</ele>
        <time>2022-10-30T00:08:37Z</time>
      </trkpt>
      <trkpt lat="49.18464" lon="1.90518">
        <ele>102</ele>
        <time>2022-10-30T00:19:13Z</time>
      </trkpt>
      <trkpt lat="49.18401" lon="1.90433">
        <ele>103</ele>
        <time>2022-10-30T00:21:05Z</time>
      </trkpt>
      <trkpt lat="49.1837" lon="1.90401">
        <ele>104</ele>
        <time>2022-10-30T00:21:55Z</time>
      </trkpt>
      <trkpt lat="49.18318" lon="1.90355">
        <ele>107</ele>
        <time>2022-10-30T00:23:15Z</time>
      </trkpt>
      <trkpt lat="49.1815" lon="1.90268">
        <ele>112</ele>
        <time>2022-10-30T00:27:12Z</time>
      </trkpt>
      <trkpt lat="49.18069" lon="1.90253">
        <ele>112</ele>
        <time>2022-10-30T00:29:01Z</time>
      </trkpt>
      <trkpt lat="49.17948" lon="1.90205">
        <ele>111</ele>
        <time>2022-10-30T00:31:48Z</time>
      </trkpt>
      <trkpt lat="49.17942" lon="1.90215">
        <ele>111</ele>
        <time>2022-10-30T00:31:59Z</time>
      </trkpt>
      <trkpt lat="49.17867" lon="1.90238">
        <ele>108</ele>
        <time>2022-10-30T00:33:41Z</time>
      </trkpt>
      <trkpt lat="49.17771" lon="1.9024">
        <ele>106</ele>
        <time>2022-10-30T00:35:50Z</time>
      </trkpt>
      <trkpt lat="49.17698" lon="1.90259">
        <ele>106</ele>
        <time>2022-10-30T00:37:28Z</time>
      </trkpt>
      <trkpt lat="49.17635" lon="1.90282">
        <ele>105</ele>
        <time>2022-10-30T00:38:55Z</time>
      </trkpt>
      <trkpt lat="49.17604" lon="1.90291">
        <ele>105</ele>
        <time>2022-10-30T00:39:37Z</time>
      </trkpt>
      <trkpt lat="49.176" lon="1.90263">
        <ele>106</ele>
        <time>2022-10-30T00:40:02Z</time>
      </trkpt>
      <trkpt lat="49.17596" lon="1.90193">
        <ele>108</ele>
        <time>2022-10-30T00:41:03Z</time>
      </trkpt>
      <trkpt lat="49.17582" lon="1.90194">
        <ele>107</ele>
        <time>2022-10-30T00:41:22Z</time>
      </trkpt>
      <trkpt lat="49.17308" lon="1.90197">
        <ele>102</ele>
        <time>2022-10-30T00:47:28Z</time>
      </trkpt>
      <trkpt lat="49.17308" lon="1.90195">
        <ele>102</ele>
        <time>2022-10-30T00:47:29Z</time>
      </trkpt>
      <trkpt lat="49.17308" lon="1.90197">
        <ele>102</ele>
        <time>2022-10-30T00:47:31Z</time>
      </trkpt>
      <trkpt lat="49.17302" lon="1.90278">
        <ele>100</ele>
        <time>2022-10-30T00:48:42Z</time>
      </trkpt>
      <trkpt lat="49.17298" lon="1.9036">
        <ele>99</ele>
        <time>2022-10-30T00:49:54Z</time>
      </trkpt>
      <trkpt lat="49.17303" lon="1.90384">
        <ele>99</ele>
        <time>2022-10-30T00:50:16Z</time>
      </trkpt>
      <trkpt lat="49.17316" lon="1.9047">
        <ele>98</ele>
        <time>2022-10-30T00:51:33Z</time>
      </trkpt>
      <trkpt lat="49.17338" lon="1.90484">
        <ele>98.8</ele>
      </trkpt>
      <trkpt lat="49.17401" lon="1.90442">
        <ele>98.5</ele>
        <time>2022-10-30T00:52:50Z</time>
      </trkpt>
      <trkpt lat="49.17532" lon="1.90747">
        <ele>98.3</ele>
        <time>2022-10-30T00:53:38Z</time>
      </trkpt>
      <trkpt lat="49.17597" lon="1.90901">
        <ele>97.5</ele>
        <time>2022-10-30T00:57:37Z</time>
      </trkpt>
      <trkpt lat="49.17731" lon="1.91219">
        <ele>96.6</ele>
        <time>2022-10-30T00:58:27Z</time>
      </trkpt>
      <trkpt lat="49.17764" lon="1.91299">
        <ele>96</ele>
        <time>2022-10-30T01:00:11Z</time>
      </trkpt>
      <trkpt lat="49.17807" lon="1.91428">
        <ele>95</ele>
        <time>2022-10-30T01:00:15Z</time>
      </trkpt>
      <trkpt lat="49.17819" lon="1.91558">
        <ele>94</ele>
        <time>2022-10-30T01:00:37Z</time>
      </trkpt>
      <trkpt lat="49.17813" lon="1.91678">
        <ele>93.3</ele>
        <time>2022-10-30T01:01:10Z</time>
      </trkpt>
      <trkpt lat="49.17793" lon="1.91807">
        <ele>92</ele>
        <time>2022-10-30T01:05:59Z</time>
      </trkpt>
      <trkpt lat="49.1772" lon="1.91984">
        <ele>89</ele>
        <time>2022-10-30T01:06:39Z</time>
      </trkpt>
      <trkpt lat="49.17657" lon="1.92068">
        <ele>86.9</ele>
        <time>2022-10-30T01:07:25Z</time>
      </trkpt>
      <trkpt lat="49.17607" lon="1.92121">
        <ele>84.9</ele>
      </trkpt>
      <trkpt lat="49.17529" lon="1.92207">
        <ele>83.1</ele>
        <time>2022-10-30T01:09:26Z</time>
      </trkpt>
      <trkpt lat="49.17491" lon="1.92269">
        <ele>82.5</ele>
        <time>2022-10-30T01:16:53Z</time>
      </trkpt>
      <trkpt lat="49.17459" lon="1.92346">
        <ele>83.7</ele>
      </trkpt>
      <trkpt lat="49.17435" lon="1.92461">
        <ele>79.9</ele>
        <time>2022-10-30T01:20:57Z</time>
      </trkpt>
      <trkpt lat="49.17418" lon="1.9266">
        <ele>79</ele>
        <time>2022-10-30T01:25:45Z</time>
      </trkpt>
      <trkpt lat="49.17446" lon="1.92823">
        <ele>79</ele>
        <time>2022-10-30T01:28:12Z</time>
      </trkpt>
      <trkpt lat="49.17474" lon="1.92967">
        <ele>76</ele>
        <time>2022-10-30T01:30:23Z</time>
      </trkpt>
      <trkpt lat="49.17504" lon="1.93046">
        <ele>73</ele>
        <time>2022-10-30T01:31:43Z</time>
      </trkpt>
      <trkpt lat="49.17521" lon="1.93076">
        <ele>73</ele>
        <time>2022-10-30T01:32:18Z</time>
      </trkpt>
      <trkpt lat="49.17532" lon="1.93095">
        <ele>72</ele>
        <time>2022-10-30T01:32:40Z</time>
      </trkpt>
      <trkpt lat="49.17496" lon="1.93138">
        <ele>73</ele>
        <time>2022-10-30T01:33:41Z</time>
      </trkpt>
      <trkpt lat="49.17458" lon="1.93177">
        <ele>73</ele>
        <time>2022-10-30T01:34:42Z</time>
      </trkpt>
      <trkpt lat="49.17402" lon="1.93191">
        <ele>74</ele>
        <time>2022-10-30T01:35:58Z</time>
      </trkpt>
      <trkpt lat="49.17362" lon="1.93188">
        <ele>74</ele>
        <time>2022-10-30T01:36:51Z</time>
      </trkpt>
      <trkpt lat="49.1734" lon="1.93193">
        <ele>74</ele>
        <time>2022-10-30T01:37:21Z</time>
      </trkpt>
      <trkpt lat="49.17285" lon="1.9323">
        <ele>73</ele>
        <time>2022-10-30T01:38:41Z</time>
      </trkpt>
      <trkpt lat="49.17214" lon="1.93262">
        <ele>74</ele>
        <time>2022-10-30T01:40:20Z</time>
      </trkpt>
      <trkpt lat="49.17154" lon="1.93306">
        <ele>72</ele>
        <time>2022-10-30T01:41:48Z</time>
      </trkpt>
      <trkpt lat="49.17133" lon="1.93314">
        <ele>71</ele>
        <time>2022-10-30T01:42:17Z</time>
      </trkpt>
      <trkpt lat="49.17125" lon="1.93315">
        <ele>71</ele>
        <time>2022-10-30T01:42:28Z</time>
      </trkpt>
      <trkpt lat="49.17117" lon="1.93312">
        <ele>72</ele>
        <time>2022-10-30T01:42:39Z</time>
      </trkpt>
      <trkpt lat="49.17015" lon="1.93254">
        <ele>75</ele>
        <time>2022-10-30T01:45:04Z</time>
      </trkpt>
      <trkpt lat="49.16982" lon="1.93246">
        <ele>76</ele>
        <time>2022-10-30T01:45:49Z</time>
      </trkpt>
      <trkpt lat="49.16924" lon="1.93253">
        <ele>77</ele>
        <time>2022-10-30T01:47:06Z</time>
      </trkpt>
      <trkpt lat="49.16872" lon="1.93274">
        <ele>81</ele>
        <time>2022-10-30T01:48:18Z</time>
      </trkpt>
      <trkpt lat="49.16814" lon="1.93312">
        <ele>85</ele>
        <time>2022-10-30T01:49:42Z</time>
      </trkpt>
      <trkpt lat="49.16814" lon="1.93311">
        <ele>85</ele>
        <time>2022-10-30T01:49:43Z</time>
      </trkpt>
      <trkpt lat="49.16814" lon="1.93312">
        <ele>85</ele>
        <time>2022-10-30T01:49:44Z</time>
      </trkpt>
      <trkpt lat="49.16799" lon="1.93364">
        <ele>84</ele>
        <time>2022-10-30T01:50:34Z</time>
      </trkpt>
      <trkpt lat="49.16791" lon="1.93422">
        <ele>82</ele>
        <time>2022-10-30T01:51:25Z</time>
      </trkpt>
      <trkpt lat="49.16789" lon="1.93455">
        <ele>81</ele>
        <time>2022-10-30T01:51:54Z</time>
      </trkpt>
      <trkpt lat="49.16792" lon="1.93515">
        <ele>78</ele>
        <time>2022-10-30T01:52:47Z</time>
      </trkpt>
      <trkpt lat="49.16783" lon="1.9355">
        <ele>78</ele>
        <time>2022-10-30T01:53:20Z</time>
      </trkpt>
      <trkpt lat="49.16782" lon="1.93562">
        <ele>78</ele>
        <time>2022-10-30T01:53:30Z</time>
      </trkpt>
      <trkpt lat="49.16791" lon="1.93629">
        <ele>75</ele>
        <time>2022-10-30T01:54:30Z</time>
      </trkpt>
      <trkpt lat="49.16796" lon="1.93643">
        <ele>74</ele>
        <time>2022-10-30T01:54:44Z</time>
      </trkpt>
      <trkpt lat="49.16814" lon="1.93669">
        <ele>73</ele>
        <time>2022-10-30T01:55:17Z</time>
      </trkpt>
      <trkpt lat="49.16853" lon="1.93784">
        <ele>69.6</ele>
        <time>2022-10-30T01:57:09Z</time>
      </trkpt>
      <trkpt lat="49.16884" lon="1.93847">
        <ele>69</ele>
        <time>2022-10-30T01:58:19Z</time>
      </trkpt>
      <trkpt lat="49.16884" lon="1.93846">
        <ele>69</ele>
        <time>2022-10-30T01:58:20Z</time>
      </trkpt>
      <trkpt lat="49.16884" lon="1.93847">
        <ele>69</ele>
        <time>2022-10-30T01:58:21Z</time>
      </trkpt>
      <trkpt lat="49.16879" lon="1.93858">
        <ele>68</ele>
        <time>2022-10-30T01:58:32Z</time>
      </trkpt>
      <trkpt lat="49.1687" lon="1.93855">
        <ele>68</ele>
        <time>2022-10-30T01:58:45Z</time>
      </trkpt>
      <trkpt lat="49.16844" lon="1.93832">
        <ele>65.9</ele>
        <time>2022-10-30T01:59:26Z</time>
      </trkpt>
      <trkpt lat="49.16837" lon="1.93869">
        <ele>64</ele>
        <time>2022-10-30T01:59:58Z</time>
      </trkpt>
      <trkpt lat="49.16826" lon="1.93917">
        <ele>68</ele>
        <time>2022-10-30T02:00:45Z</time>
      </trkpt>
      <trkpt lat="49.16808" lon="1.93967">
        <ele>68</ele>
        <time>2022-10-30T02:01:34Z</time>
      </trkpt>
      <trkpt lat="49.16791" lon="1.94002">
        <ele>69</ele>
        <time>2022-10-30T02:02:13Z</time>
      </trkpt>
      <trkpt lat="49.16773" lon="1.94028">
        <ele>71</ele>
        <time>2022-10-30T02:02:46Z</time>
      </trkpt>
      <trkpt lat="49.16754" lon="1.94046">
        <ele>73</ele>
        <time>2022-10-30T02:03:15Z</time>
      </trkpt>
      <trkpt lat="49.16752" lon="1.94045">
        <ele>73</ele>
        <time>2022-10-30T02:03:18Z</time>
      </trkpt>
      <trkpt lat="49.16719" lon="1.94008">
        <ele>72</ele>
        <time>2022-10-30T02:04:13Z</time>
      </trkpt>
      <trkpt lat="49.16658" lon="1.93921">
        <ele>70</ele>
        <time>2022-10-30T02:06:04Z</time>
      </trkpt>
      <trkpt lat="49.1665" lon="1.93915">
        <ele>70</ele>
        <time>2022-10-30T02:06:16Z</time>
      </trkpt>
      <trkpt lat="49.16626" lon="1.93905">
        <ele>71</ele>
        <time>2022-10-30T02:06:49Z</time>
      </trkpt>
      <trkpt lat="49.16548" lon="1.93879">
        <ele>71</ele>
        <time>2022-10-30T02:08:36Z</time>
      </trkpt>
      <trkpt lat="49.16483" lon="1.93869">
        <ele>71</ele>
        <time>2022-10-30T02:10:03Z</time>
      </trkpt>
      <trkpt lat="49.16457" lon="1.93855">
        <ele>70</ele>
        <time>2022-10-30T02:10:40Z</time>
      </trkpt>
      <trkpt lat="49.16446" lon="1.93849">
        <ele>70</ele>
        <time>2022-10-30T02:10:55Z</time>
      </trkpt>
      <trkpt lat="49.16394" lon="1.93828">
        <ele>69</ele>
        <time>2022-10-30T02:12:07Z</time>
      </trkpt>
      <trkpt lat="49.16373" lon="1.93829">
        <ele>70</ele>
        <time>2022-10-30T02:12:35Z</time>
      </trkpt>
      <trkpt lat="49.16361" lon="1.93832">
        <ele>70</ele>
        <time>2022-10-30T02:12:51Z</time>
      </trkpt>
      <trkpt lat="49.16335" lon="1.93833">
        <ele>71</ele>
        <time>2022-10-30T02:13:26Z</time>
      </trkpt>
      <trkpt lat="49.16296" lon="1.93853">
        <ele>71</ele>
        <time>2022-10-30T02:14:21Z</time>
      </trkpt>
      <trkpt lat="49.16281" lon="1.93864">
        <ele>71</ele>
        <time>2022-10-30T02:14:43Z</time>
      </trkpt>
      <trkpt lat="49.16253" lon="1.93895">
        <ele>71</ele>
        <time>2022-10-30T02:15:29Z</time>
      </trkpt>
      <trkpt lat="49.16244" lon="1.93904">
        <ele>71</ele>
        <time>2022-10-30T02:15:44Z</time>
      </trkpt>
      <trkpt lat="49.16238" lon="1.9391">
        <ele>71</ele>
        <time>2022-10-30T02:15:53Z</time>
      </trkpt>
      <trkpt lat="49.16239" lon="1.93913">
        <ele>71</ele>
        <time>2022-10-30T02:15:56Z</time>
      </trkpt>
      <trkpt lat="49.16243" lon="1.93922">
        <ele>72</ele>
        <time>2022-10-30T02:16:06Z</time>
      </trkpt>
      <trkpt lat="49.16253" lon="1.93938">
        <ele>75</ele>
        <time>2022-10-30T02:16:25Z</time>
      </trkpt>
      <trkpt lat="49.16255" lon="1.9395">
        <ele>76</ele>
        <time>2022-10-30T02:16:36Z</time>
      </trkpt>
      <trkpt lat="49.16238" lon="1.93976">
        <ele>77</ele>
        <time>2022-10-30T02:17:08Z</time>
      </trkpt>
      <trkpt lat="49.16226" lon="1.93985">
        <ele>77</ele>
        <time>2022-10-30T02:17:26Z</time>
      </trkpt>
      <trkpt lat="49.16208" lon="1.93988">
        <ele>76</ele>
        <time>2022-10-30T02:17:50Z</time>
      </trkpt>
      <trkpt lat="49.16165" lon="1.93985">
        <ele>73</ele>
        <time>2022-10-30T02:18:47Z</time>
      </trkpt>
      <trkpt lat="49.16128" lon="1.93999">
        <ele>73</ele>
        <time>2022-10-30T02:19:38Z</time>
      </trkpt>
      <trkpt lat="49.16113" lon="1.94">
        <ele>73</ele>
        <time>2022-10-30T02:19:58Z</time>
      </trkpt>
      <trkpt lat="49.16103" lon="1.93998">
        <ele>72</ele>
        <time>2022-10-30T02:20:12Z</time>
      </trkpt>
      <trkpt lat="49.16085" lon="1.93988">
        <ele>71</ele>
        <time>2022-10-30T02:20:37Z</time>
      </trkpt>
      <trkpt lat="49.1606" lon="1.93959">
        <ele>70</ele>
        <time>2022-10-30T02:21:19Z</time>
      </trkpt>
      <trkpt lat="49.16047" lon="1.93935">
        <ele>69</ele>
        <time>2022-10-30T02:21:46Z</time>
      </trkpt>
      <trkpt lat="49.16045" lon="1.93937">
        <ele>69</ele>
        <time>2022-10-30T02:21:49Z</time>
      </trkpt>
      <trkpt lat="49.16042" lon="1.9393">
        <ele>68</ele>
        <time>2022-10-30T02:21:57Z</time>
      </trkpt>
      <trkpt lat="49.16038" lon="1.93931">
        <ele>69</ele>
        <time>2022-10-30T02:22:02Z</time>
      </trkpt>
      <trkpt lat="49.16042" lon="1.9393">
        <ele>68</ele>
        <time>2022-10-30T02:22:08Z</time>
      </trkpt>
      <trkpt lat="49.16045" lon="1.93937">
        <ele>69</ele>
        <time>2022-10-30T02:22:15Z</time>
      </trkpt>
      <trkpt lat="49.16047" lon="1.93935">
        <ele>69</ele>
        <time>2022-10-30T02:22:18Z</time>
      </trkpt>
      <trkpt lat="49.16041" lon="1.9392">
        <ele>68</ele>
        <time>2022-10-30T02:22:33Z</time>
      </trkpt>
      <trkpt lat="49.16033" lon="1.9388">
        <ele>67</ele>
        <time>2022-10-30T02:23:10Z</time>
      </trkpt>
      <trkpt lat="49.16027" lon="1.93792">
        <ele>65</ele>
        <time>2022-10-30T02:24:27Z</time>
      </trkpt>
      <trkpt lat="49.1602" lon="1.93729">
        <ele>65</ele>
        <time>2022-10-30T02:25:23Z</time>
      </trkpt>
      <trkpt lat="49.16024" lon="1.93728">
        <ele>65</ele>
        <time>2022-10-30T02:25:28Z</time>
      </trkpt>
      <trkpt lat="49.16022" lon="1.93712">
        <ele>64</ele>
        <time>2022-10-30T02:25:42Z</time>
      </trkpt>
      <trkpt lat="49.16023" lon="1.93682">
        <ele>64</ele>
        <time>2022-10-30T02:26:09Z</time>
      </trkpt>
      <trkpt lat="49.1602" lon="1.93681">
        <ele>64</ele>
        <time>2022-10-30T02:26:13Z</time>
      </trkpt>
      <trkpt lat="49.16022" lon="1.93642">
        <ele>65</ele>
        <time>2022-10-30T02:27:34Z</time>
      </trkpt>
      <trkpt lat="49.1595" lon="1.93631">
        <ele>63</ele>
        <time>2022-10-30T02:29:11Z</time>
      </trkpt>
      <trkpt lat="49.15917" lon="1.93628">
        <ele>63</ele>
        <time>2022-10-30T02:29:55Z</time>
      </trkpt>
      <trkpt lat="49.15889" lon="1.93629">
        <ele>62</ele>
        <time>2022-10-30T02:30:32Z</time>
      </trkpt>
      <trkpt lat="49.15877" lon="1.93624">
        <ele>62</ele>
        <time>2022-10-30T02:30:49Z</time>
      </trkpt>
      <trkpt lat="49.15857" lon="1.93624">
        <ele>62</ele>
        <time>2022-10-30T02:31:16Z</time>
      </trkpt>
      <trkpt lat="49.15776" lon="1.93646">
        <ele>62</ele>
        <time>2022-10-30T02:33:05Z</time>
      </trkpt>
      <trkpt lat="49.15734" lon="1.93661">
        <ele>61</ele>
        <time>2022-10-30T02:34:03Z</time>
      </trkpt>
      <trkpt lat="49.15699" lon="1.93679">
        <ele>61</ele>
        <time>2022-10-30T02:34:52Z</time>
      </trkpt>
      <trkpt lat="49.15654" lon="1.93705">
        <ele>61</ele>
        <time>2022-10-30T02:35:56Z</time>
      </trkpt>
      <trkpt lat="49.15613" lon="1.93736">
        <ele>61</ele>
        <time>2022-10-30T02:36:58Z</time>
      </trkpt>
      <trkpt lat="49.15532" lon="1.93806">
        <ele>61</ele>
        <time>2022-10-30T02:39:02Z</time>
      </trkpt>
      <trkpt lat="49.15495" lon="1.93847">
        <ele>60</ele>
        <time>2022-10-30T02:40:03Z</time>
      </trkpt>
      <trkpt lat="49.15422" lon="1.93911">
        <ele>58</ele>
        <time>2022-10-30T02:41:55Z</time>
      </trkpt>
      <trkpt lat="49.15387" lon="1.93936">
        <ele>59</ele>
        <time>2022-10-30T02:42:47Z</time>
      </trkpt>
      <trkpt lat="49.15353" lon="1.93957">
        <ele>61</ele>
        <time>2022-10-30T02:43:35Z</time>
      </trkpt>
      <trkpt lat="49.15332" lon="1.93966">
        <ele>62</ele>
        <time>2022-10-30T02:44:05Z</time>
      </trkpt>
      <trkpt lat="49.1532" lon="1.93969">
        <ele>62</ele>
        <time>2022-10-30T02:44:21Z</time>
      </trkpt>
      <trkpt lat="49.15279" lon="1.93838">
        <ele>64.6</ele>
        <time>2022-10-30T02:46:29Z</time>
      </trkpt>
      <trkpt lat="49.1525" lon="1.939">
        <ele>65</ele>
        <time>2022-10-30T02:47:37Z</time>
      </trkpt>
      <trkpt lat="49.15244" lon="1.9391">
        <ele>64</ele>
        <time>2022-10-30T02:47:49Z</time>
      </trkpt>
      <trkpt lat="49.15223" lon="1.93945">
        <ele>63</ele>
        <time>2022-10-30T02:48:31Z</time>
      </trkpt>
      <trkpt lat="49.15211" lon="1.93956">
        <ele>62</ele>
        <time>2022-10-30T02:48:49Z</time>
      </trkpt>
      <trkpt lat="49.15202" lon="1.93959">
        <ele>62</ele>
        <time>2022-10-30T02:49:02Z</time>
      </trkpt>
      <trkpt lat="49.15188" lon="1.93958">
        <ele>62</ele>
        <time>2022-10-30T02:49:20Z</time>
      </trkpt>
      <trkpt lat="49.15172" lon="1.93942">
        <ele>63</ele>
        <time>2022-10-30T02:49:46Z</time>
      </trkpt>
      <trkpt lat="49.15145" lon="1.93877">
        <ele>65</ele>
        <time>2022-10-30T02:50:53Z</time>
      </trkpt>
      <trkpt lat="49.15124" lon="1.93793">
        <ele>70</ele>
        <time>2022-10-30T02:52:11Z</time>
      </trkpt>
      <trkpt lat="49.15099" lon="1.9374">
        <ele>71</ele>
        <time>2022-10-30T02:53:08Z</time>
      </trkpt>
      <trkpt lat="49.15076" lon="1.937">
        <ele>73</ele>
        <time>2022-10-30T02:53:55Z</time>
      </trkpt>
      <trkpt lat="49.1505" lon="1.93663">
        <ele>74</ele>
        <time>2022-10-30T02:54:42Z</time>
      </trkpt>
      <trkpt lat="49.15" lon="1.93612">
        <ele>77</ele>
        <time>2022-10-30T02:56:03Z</time>
      </trkpt>
      <trkpt lat="49.1496" lon="1.93588">
        <ele>77</ele>
        <time>2022-10-30T02:57:00Z</time>
      </trkpt>
      <trkpt lat="49.1491" lon="1.93565">
        <ele>75</ele>
        <time>2022-10-30T02:58:10Z</time>
      </trkpt>
      <trkpt lat="49.14867" lon="1.93553">
        <ele>75</ele>
        <time>2022-10-30T02:59:08Z</time>
      </trkpt>
      <trkpt lat="49.14824" lon="1.93553">
        <ele>74</ele>
        <time>2022-10-30T03:00:05Z</time>
      </trkpt>
      <trkpt lat="49.14753" lon="1.93572">
        <ele>73</ele>
        <time>2022-10-30T03:01:41Z</time>
      </trkpt>
      <trkpt lat="49.14694" lon="1.93599">
        <ele>67</ele>
        <time>2022-10-30T03:03:04Z</time>
      </trkpt>
      <trkpt lat="49.14657" lon="1.93612">
        <ele>64</ele>
        <time>2022-10-30T03:03:54Z</time>
      </trkpt>
      <trkpt lat="49.14654" lon="1.936">
        <ele>65</ele>
        <time>2022-10-30T03:04:06Z</time>
      </trkpt>
      <trkpt lat="49.14612" lon="1.93582">
        <ele>65</ele>
        <time>2022-10-30T03:05:04Z</time>
      </trkpt>
      <trkpt lat="49.14557" lon="1.93544">
        <ele>65</ele>
        <time>2022-10-30T03:06:24Z</time>
      </trkpt>
      <trkpt lat="49.14544" lon="1.93528">
        <ele>65</ele>
        <time>2022-10-30T03:06:47Z</time>
      </trkpt>
      <trkpt lat="49.14522" lon="1.9348">
        <ele>65</ele>
        <time>2022-10-30T03:07:38Z</time>
      </trkpt>
      <trkpt lat="49.14505" lon="1.93482">
        <ele>63</ele>
        <time>2022-10-30T03:08:00Z</time>
      </trkpt>
      <trkpt lat="49.14415" lon="1.93506">
        <ele>61</ele>
        <time>2022-10-30T03:10:02Z</time>
      </trkpt>
      <trkpt lat="49.14411" lon="1.93507">
        <ele>61</ele>
        <time>2022-10-30T03:10:08Z</time>
      </trkpt>
      <trkpt lat="49.14374" lon="1.93515">
        <ele>65</ele>
        <time>2022-10-30T03:10:58Z</time>
      </trkpt>
      <trkpt lat="49.14329" lon="1.93514">
        <ele>69</ele>
        <time>2022-10-30T03:11:58Z</time>
      </trkpt>
      <trkpt lat="49.14218" lon="1.93552">
        <ele>70</ele>
        <time>2022-10-30T03:14:30Z</time>
      </trkpt>
      <trkpt lat="49.14192" lon="1.93568">
        <ele>68</ele>
        <time>2022-10-30T03:15:07Z</time>
      </trkpt>
      <trkpt lat="49.14136" lon="1.93556">
        <ele>68</ele>
        <time>2022-10-30T03:16:22Z</time>
      </trkpt>
      <trkpt lat="49.14085" lon="1.93514">
        <ele>68</ele>
        <time>2022-10-30T03:17:40Z</time>
      </trkpt>
      <trkpt lat="49.14002" lon="1.93468">
        <ele>66</ele>
        <time>2022-10-30T03:19:38Z</time>
      </trkpt>
      <trkpt lat="49.13921" lon="1.93527">
        <ele>63</ele>
        <time>2022-10-30T03:21:37Z</time>
      </trkpt>
      <trkpt lat="49.13885" lon="1.93544">
        <ele>66</ele>
        <time>2022-10-30T03:22:28Z</time>
      </trkpt>
      <trkpt lat="49.13713" lon="1.93745">
        <ele>68</ele>
        <time>2022-10-30T03:27:16Z</time>
      </trkpt>
      <trkpt lat="49.13699" lon="1.93757">
        <ele>70</ele>
        <time>2022-10-30T03:27:38Z</time>
      </trkpt>
      <trkpt lat="49.1369" lon="1.93811">
        <ele>69</ele>
        <time>2022-10-30T03:28:27Z</time>
      </trkpt>
      <trkpt lat="49.13648" lon="1.93905">
        <ele>69</ele>
        <time>2022-10-30T03:30:06Z</time>
      </trkpt>
      <trkpt lat="49.13625" lon="1.93938">
        <ele>68</ele>
        <time>2022-10-30T03:30:48Z</time>
      </trkpt>
      <trkpt lat="49.13627" lon="1.93931">
        <ele>69</ele>
        <time>2022-10-30T03:30:55Z</time>
      </trkpt>
      <trkpt lat="49.13649" lon="1.93815">
        <ele>73</ele>
        <time>2022-10-30T03:32:40Z</time>
      </trkpt>
      <trkpt lat="49.13669" lon="1.937">
        <ele>77</ele>
        <time>2022-10-30T03:34:24Z</time>
      </trkpt>
      <trkpt lat="49.13674" lon="1.93633">
        <ele>81</ele>
        <time>2022-10-30T03:35:23Z</time>
      </trkpt>
      <trkpt lat="49.13686" lon="1.93558">
        <ele>84</ele>
        <time>2022-10-30T03:36:30Z</time>
      </trkpt>
      <trkpt lat="49.13687" lon="1.93533">
        <ele>85</ele>
        <time>2022-10-30T03:36:52Z</time>
      </trkpt>
      <trkpt lat="49.13682" lon="1.93519">
        <ele>86</ele>
        <time>2022-10-30T03:37:06Z</time>
      </trkpt>
      <trkpt lat="49.13675" lon="1.9351">
        <ele>86</ele>
        <time>2022-10-30T03:37:18Z</time>
      </trkpt>
      <trkpt lat="49.13627" lon="1.93476">
        <ele>88</ele>
        <time>2022-10-30T03:38:29Z</time>
      </trkpt>
      <trkpt lat="49.13598" lon="1.93448">
        <ele>88</ele>
        <time>2022-10-30T03:39:15Z</time>
      </trkpt>
      <trkpt lat="49.13521" lon="1.93343">
        <ele>90</ele>
        <time>2022-10-30T03:41:32Z</time>
      </trkpt>
      <trkpt lat="49.13501" lon="1.93321">
        <ele>90</ele>
        <time>2022-10-30T03:42:05Z</time>
      </trkpt>
      <trkpt lat="49.13456" lon="1.93232">
        <ele>90</ele>
        <time>2022-10-30T03:43:43Z</time>
      </trkpt>
      <trkpt lat="49.13399" lon="1.93169">
        <ele>89</ele>
        <time>2022-10-30T03:45:17Z</time>
      </trkpt>
      <trkpt lat="49.13265" lon="1.93272">
        <ele>88</ele>
        <time>2022-10-30T03:48:38Z</time>
      </trkpt>
      <trkpt lat="49.13245" lon="1.933">
        <ele>87</ele>
        <time>2022-10-30T03:49:14Z</time>
      </trkpt>
      <trkpt lat="49.13243" lon="1.93291">
        <ele>87</ele>
        <time>2022-10-30T03:49:22Z</time>
      </trkpt>
      <trkpt lat="49.13245" lon="1.933">
        <ele>87</ele>
        <time>2022-10-30T03:49:30Z</time>
      </trkpt>
      <trkpt lat="49.13232" lon="1.93332">
        <ele>87</ele>
        <time>2022-10-30T03:50:03Z</time>
      </trkpt>
      <trkpt lat="49.13209" lon="1.93378">
        <ele>85</ele>
        <time>2022-10-30T03:50:54Z</time>
      </trkpt>
      <trkpt lat="49.13094" lon="1.93657">
        <ele>81</ele>
        <time>2022-10-30T03:55:42Z</time>
      </trkpt>
      <trkpt lat="49.13034" lon="1.93737">
        <ele>82</ele>
        <time>2022-10-30T03:57:28Z</time>
      </trkpt>
      <trkpt lat="49.12831" lon="1.93769">
        <ele>70.1</ele>
        <time>2022-10-30T04:00:31Z</time>
      </trkpt>
      <trkpt lat="49.12748" lon="1.93768">
        <ele>61.2</ele>
        <time>2022-10-30T04:03:18Z</time>
      </trkpt>
      <trkpt lat="49.12675" lon="1.93859">
        <ele>62.9</ele>
        <time>2022-10-30T04:09:49Z</time>
      </trkpt>
      <trkpt lat="49.12645" lon="1.9387">
        <ele>60.3</ele>
      </trkpt>
      <trkpt lat="49.1258" lon="1.93841">
        <ele>55</ele>
      </trkpt>
      <trkpt lat="49.12518" lon="1.93786">
        <ele>56.3</ele>
      </trkpt>
      <trkpt lat="49.12486" lon="1.9374">
        <ele>62.4</ele>
      </trkpt>
      <trkpt lat="49.12453" lon="1.93792">
        <ele>59.1</ele>
      </trkpt>
      <trkpt lat="49.12385" lon="1.93821">
        <ele>57.7</ele>
      </trkpt>
      <trkpt lat="49.12366" lon="1.93844">
        <ele>59.5</ele>
      </trkpt>
      <trkpt lat="49.12335" lon="1.93989">
        <ele>60</ele>
      </trkpt>
      <trkpt lat="49.12322" lon="1.94013">
        <ele>58.7</ele>
      </trkpt>
      <trkpt lat="49.12267" lon="1.94037">
        <ele>57.5</ele>
      </trkpt>
      <trkpt lat="49.12239" lon="1.9404">
        <ele>58.1</ele>
      </trkpt>
      <trkpt lat="49.12255" lon="1.94086">
        <ele>55.7</ele>
      </trkpt>
      <trkpt lat="49.12271" lon="1.94162">
        <ele>53</ele>
      </trkpt>
      <trkpt lat="49.1235" lon="1.94304">
        <ele>60.7</ele>
      </trkpt>
      <trkpt lat="49.12395" lon="1.94412">
        <ele>68</ele>
      </trkpt>
      <trkpt lat="49.12416" lon="1.94524">
        <ele>73.8</ele>
        <time>2022-10-30T04:13:57Z</time>
      </trkpt>
      <trkpt lat="49.12439" lon="1.94623">
        <ele>75.4</ele>
        <time>2022-10-30T04:15:34Z</time>
      </trkpt>
      <trkpt lat="49.1241" lon="1.94656">
        <ele>71</ele>
        <time>2022-10-30T04:16:52Z</time>
      </trkpt>
      <trkpt lat="49.12431" lon="1.94715">
        <ele>66</ele>
        <time>2022-10-30T04:17:50Z</time>
      </trkpt>
      <trkpt lat="49.12433" lon="1.9477">
        <ele>61</ele>
        <time>2022-10-30T04:18:38Z</time>
      </trkpt>
      <trkpt lat="49.12437" lon="1.94795">
        <ele>59</ele>
        <time>2022-10-30T04:19:01Z</time>
      </trkpt>
      <trkpt lat="49.12427" lon="1.94805">
        <ele>58</ele>
        <time>2022-10-30T04:19:17Z</time>
      </trkpt>
      <trkpt lat="49.12422" lon="1.94814">
        <ele>57</ele>
        <time>2022-10-30T04:19:27Z</time>
      </trkpt>
      <trkpt lat="49.12422" lon="1.94826">
        <ele>56</ele>
        <time>2022-10-30T04:19:38Z</time>
      </trkpt>
      <trkpt lat="49.1243" lon="1.94843">
        <ele>55</ele>
        <time>2022-10-30T04:19:56Z</time>
      </trkpt>
      <trkpt lat="49.12431" lon="1.94847">
        <ele>55</ele>
        <time>2022-10-30T04:20:00Z</time>
      </trkpt>
      <trkpt lat="49.12415" lon="1.94882">
        <ele>54</ele>
        <time>2022-10-30T04:20:37Z</time>
      </trkpt>
      <trkpt lat="49.12436" lon="1.94916">
        <ele>54</ele>
      </trkpt>
      <trkpt lat="49.12428" lon="1.94919">
        <ele>53.8</ele>
        <time>2022-10-30T04:20:58Z</time>
      </trkpt>
    </trkseg>
  </trk>
</gpx>